WTTO2: Illinois River, Watts, OK

                                SHEF ID:       WTTO2     Illinois River near Watts, OK
STATION TYPE: Stream Gauge
Regulating: Stage = 13.00, Flow = 11165

PRECIP STAGE STAGE(2) RIV-FLOW WTR-TEMP VOLTAGE BAT-LOAD
in ft ft cfs F volt volt
Ccp-Rev Ccp-Rev Ccp-Rev Ccp-Rev Ccp-Rev Ccp-Rev Ccp-Rev
(America/Chicago)
04/26 00:00 0.00 5.66 ---- 1910 66.72 ---- 12.75
04/26 01:00 0.00 6.16 ---- 2308 66.47 ---- 12.72
04/26 02:00 0.00 6.71 ---- 2851 66.18 ---- 12.69
04/26 03:00 0.00 7.11 ---- 3261 65.07 ---- 12.67
04/26 04:00 0.00 7.50 ---- 3663 64.11 ---- 12.65
04/26 05:00 0.00 7.52 ---- 3684 63.81 ---- 12.63
04/26 06:00 0.00 7.42 ---- 3582 63.72 ---- 12.61
04/26 07:00 0.00 7.67 ---- 3839 63.70 ---- 12.60
04/26 08:00 0.00 8.28 ---- 4503 64.08 ---- 12.95
04/26 09:00 0.00 8.91 ---- 5238 64.54 ---- 13.54
04/26 10:00 0.00 9.48 ---- 5945 64.80 ---- 13.53
04/26 11:00 0.00 9.88 ---- 6465 64.54 ---- 13.52
04/26 12:00 0.00 10.13 ---- 6799 64.45 ---- 13.65
04/26 13:00 0.00 10.17 ---- 6854 64.63 ---- 13.65
04/26 14:00 0.00 9.94 ---- 6544 65.10 ---- 13.64
04/26 15:00 0.00 9.48 ---- 5945 65.57 ---- 13.49
04/26 16:00 0.00 8.92 ---- 5250 65.98 ---- 13.36
04/26 17:00 0.00 8.43 ---- 4674 66.27 ---- 13.34
04/26 18:00 0.00 8.00 ---- 4193 66.47 ---- 13.30
04/26 19:00 0.00 7.69 ---- 3860 66.60 ---- 13.29
04/26 20:00 0.00 7.45 ---- 3612 66.70 ---- 13.15
04/26 21:00 0.00 7.26 ---- 3417 66.76 ---- 12.98
04/26 22:00 0.00 7.10 ---- 3251 66.76 ---- 12.88
04/26 23:00 0.00 7.02 ---- 3168 66.76 ---- 12.80
Data processed at Mon 27Apr2026 04:35 GMT

NOTICE: If you are parsing this page

Please convert to using our Data API. Starting early 2026 we will be migrating to: https://water.usace.army.mil with modern pages rendered in JavaScript. When this migration completes you will no longer be able to scrape this page! CWMSDataAPI (CDA)

Timeseries IDs (TSIDs)

TSIDs used from left to right in the data table
WATT.Precip-Inc.Total.1Hour.1Hour.Ccp-Rev
WATT.Stage.Inst.1Hour.0.Ccp-Rev
WATT.Stage-Alt.Inst.1Hour.0.Ccp-Rev
WATT.Flow.Inst.1Hour.0.Ccp-Rev
WATT.Temp-Water.Inst.1Hour.0.Ccp-Rev
WATT.Volt-Battery.Inst.1Hour.0.Ccp-Rev
WATT.Volt-Battery Load.Inst.1Hour.0.Ccp-Rev

                            

All information presented herein is the property of the government of the United States of America and may be revised or deleted at any time without prior notice. Dissemination of this information without the expressed written consent of the Public Affairs Office, Tulsa District U.S. Army Corps of Engineers is strictly prohibited. These data are gathered electronically and, as presented, have NOT undergone any form of quality control. These data are NOT guaranteed to be valid or correct.